sensor_id;sensor_type;location;lat;lon;timestamp;temperature;humidity
33673;DHT22;20011;51.510;9.942;2023-05-10T00:00:29;15.00;88.40
33673;DHT22;20011;51.510;9.942;2023-05-10T00:02:56;15.00;87.70
33673;DHT22;20011;51.510;9.942;2023-05-10T00:05:23;15.00;87.60
33673;DHT22;20011;51.510;9.942;2023-05-10T00:07:50;14.90;87.10
33673;DHT22;20011;51.510;9.942;2023-05-10T00:10:17;15.00;86.80
33673;DHT22;20011;51.510;9.942;2023-05-10T00:12:44;14.90;86.60
33673;DHT22;20011;51.510;9.942;2023-05-10T00:15:11;15.00;86.30
33673;DHT22;20011;51.510;9.942;2023-05-10T00:17:38;15.00;86.30
33673;DHT22;20011;51.510;9.942;2023-05-10T00:20:05;15.00;86.40
33673;DHT22;20011;51.510;9.942;2023-05-10T00:22:32;15.00;86.30
33673;DHT22;20011;51.510;9.942;2023-05-10T00:24:59;15.00;86.40
33673;DHT22;20011;51.510;9.942;2023-05-10T00:27:26;15.00;86.40
33673;DHT22;20011;51.510;9.942;2023-05-10T00:29:53;15.00;86.60
33673;DHT22;20011;51.510;9.942;2023-05-10T00:32:20;15.00;86.50
33673;DHT22;20011;51.510;9.942;2023-05-10T00:34:47;15.00;86.60
33673;DHT22;20011;51.510;9.942;2023-05-10T00:37:14;15.00;86.90
33673;DHT22;20011;51.510;9.942;2023-05-10T00:39:41;15.00;87.00
33673;DHT22;20011;51.510;9.942;2023-05-10T00:42:08;15.00;87.40
33673;DHT22;20011;51.510;9.942;2023-05-10T00:44:35;15.00;88.00
33673;DHT22;20011;51.510;9.942;2023-05-10T00:49:29;15.00;87.30
33673;DHT22;20011;51.510;9.942;2023-05-10T00:51:56;15.00;87.60
33673;DHT22;20011;51.510;9.942;2023-05-10T00:54:24;15.00;87.70
33673;DHT22;20011;51.510;9.942;2023-05-10T00:56:51;15.00;87.80
33673;DHT22;20011;51.510;9.942;2023-05-10T00:59:18;15.00;87.90
33673;DHT22;20011;51.510;9.942;2023-05-10T01:01:46;15.00;87.80
33673;DHT22;20011;51.510;9.942;2023-05-10T01:04:14;15.00;87.90
33673;DHT22;20011;51.510;9.942;2023-05-10T01:06:42;15.00;88.70
33673;DHT22;20011;51.510;9.942;2023-05-10T01:09:09;15.00;88.50
33673;DHT22;20011;51.510;9.942;2023-05-10T01:11:38;15.00;88.60
33673;DHT22;20011;51.510;9.942;2023-05-10T01:14:06;15.00;88.40
33673;DHT22;20011;51.510;9.942;2023-05-10T01:16:40;15.00;88.40
33673;DHT22;20011;51.510;9.942;2023-05-10T01:19:23;15.00;89.00
33673;DHT22;20011;51.510;9.942;2023-05-10T01:27:41;15.00;89.30
33673;DHT22;20011;51.510;9.942;2023-05-10T01:33:17;15.00;90.60
33673;DHT22;20011;51.510;9.942;2023-05-10T01:38:49;15.00;91.30
33673;DHT22;20011;51.510;9.942;2023-05-10T01:41:18;15.00;91.40
33673;DHT22;20011;51.510;9.942;2023-05-10T01:46:32;14.90;91.00
33673;DHT22;20011;51.510;9.942;2023-05-10T01:49:06;14.90;91.20
33673;DHT22;20011;51.510;9.942;2023-05-10T01:51:39;15.00;91.10
33673;DHT22;20011;51.510;9.942;2023-05-10T01:54:09;14.90;91.40
33673;DHT22;20011;51.510;9.942;2023-05-10T01:56:39;14.90;91.20
33673;DHT22;20011;51.510;9.942;2023-05-10T01:59:12;14.90;90.70
33673;DHT22;20011;51.510;9.942;2023-05-10T02:01:41;14.90;90.50
33673;DHT22;20011;51.510;9.942;2023-05-10T02:04:11;14.90;90.30
33673;DHT22;20011;51.510;9.942;2023-05-10T02:06:41;14.90;90.40
33673;DHT22;20011;51.510;9.942;2023-05-10T02:09:10;15.00;90.40
33673;DHT22;20011;51.510;9.942;2023-05-10T02:11:39;15.00;90.00
33673;DHT22;20011;51.510;9.942;2023-05-10T02:14:09;15.00;90.00
33673;DHT22;20011;51.510;9.942;2023-05-10T02:16:38;15.00;90.10
33673;DHT22;20011;51.510;9.942;2023-05-10T02:19:06;15.00;90.00
33673;DHT22;20011;51.510;9.942;2023-05-10T02:21:35;15.00;90.00
33673;DHT22;20011;51.510;9.942;2023-05-10T02:24:06;15.00;90.20
33673;DHT22;20011;51.510;9.942;2023-05-10T02:26:35;15.00;90.30
33673;DHT22;20011;51.510;9.942;2023-05-10T02:29:03;15.00;90.60
33673;DHT22;20011;51.510;9.942;2023-05-10T02:31:32;15.00;90.80
33673;DHT22;20011;51.510;9.942;2023-05-10T02:34:00;15.00;90.90
33673;DHT22;20011;51.510;9.942;2023-05-10T02:36:28;15.00;91.10
33673;DHT22;20011;51.510;9.942;2023-05-10T02:38:56;15.00;91.50
33673;DHT22;20011;51.510;9.942;2023-05-10T02:41:25;15.00;92.20
33673;DHT22;20011;51.510;9.942;2023-05-10T02:43:56;15.00;92.40
33673;DHT22;20011;51.510;9.942;2023-05-10T02:46:25;14.90;92.50
33673;DHT22;20011;51.510;9.942;2023-05-10T02:48:52;14.90;92.80
33673;DHT22;20011;51.510;9.942;2023-05-10T02:51:23;14.90;93.40
33673;DHT22;20011;51.510;9.942;2023-05-10T02:53:53;14.90;94.00
33673;DHT22;20011;51.510;9.942;2023-05-10T02:56:43;14.90;94.90
33673;DHT22;20011;51.510;9.942;2023-05-10T02:59:13;14.90;95.50
33673;DHT22;20011;51.510;9.942;2023-05-10T03:01:41;14.90;95.70
33673;DHT22;20011;51.510;9.942;2023-05-10T03:04:08;14.80;96.20
33673;DHT22;20011;51.510;9.942;2023-05-10T03:06:35;14.90;96.80
33673;DHT22;20011;51.510;9.942;2023-05-10T03:09:03;14.80;97.30
33673;DHT22;20011;51.510;9.942;2023-05-10T03:11:55;14.80;97.70
33673;DHT22;20011;51.510;9.942;2023-05-10T03:17:25;14.80;99.50
33673;DHT22;20011;51.510;9.942;2023-05-10T03:19:58;14.80;99.90
33673;DHT22;20011;51.510;9.942;2023-05-10T03:22:34;14.80;99.90
33673;DHT22;20011;51.510;9.942;2023-05-10T03:25:06;14.80;99.90
33673;DHT22;20011;51.510;9.942;2023-05-10T03:27:35;14.70;99.90
33673;DHT22;20011;51.510;9.942;2023-05-10T03:30:03;14.70;99.90
33673;DHT22;20011;51.510;9.942;2023-05-10T03:32:32;14.70;99.90
33673;DHT22;20011;51.510;9.942;2023-05-10T03:35:05;14.70;99.90
33673;DHT22;20011;51.510;9.942;2023-05-10T03:37:32;14.70;99.90
33673;DHT22;20011;51.510;9.942;2023-05-10T03:39:59;14.70;99.90
33673;DHT22;20011;51.510;9.942;2023-05-10T03:42:28;14.60;99.90
33673;DHT22;20011;51.510;9.942;2023-05-10T03:44:55;14.60;99.90
33673;DHT22;20011;51.510;9.942;2023-05-10T03:47:22;14.60;99.90
33673;DHT22;20011;51.510;9.942;2023-05-10T03:49:49;14.60;99.90
33673;DHT22;20011;51.510;9.942;2023-05-10T03:52:16;14.60;99.90
33673;DHT22;20011;51.510;9.942;2023-05-10T03:54:44;14.60;99.90
33673;DHT22;20011;51.510;9.942;2023-05-10T03:57:11;14.60;99.90
33673;DHT22;20011;51.510;9.942;2023-05-10T03:59:38;14.60;99.90
33673;DHT22;20011;51.510;9.942;2023-05-10T04:02:06;14.60;99.90
33673;DHT22;20011;51.510;9.942;2023-05-10T04:04:32;14.50;99.90
33673;DHT22;20011;51.510;9.942;2023-05-10T04:06:59;14.50;99.90
33673;DHT22;20011;51.510;9.942;2023-05-10T04:09:26;14.40;99.90
33673;DHT22;20011;51.510;9.942;2023-05-10T04:11:53;14.40;99.90
33673;DHT22;20011;51.510;9.942;2023-05-10T04:14:20;14.40;99.90
33673;DHT22;20011;51.510;9.942;2023-05-10T04:16:47;14.30;99.90
33673;DHT22;20011;51.510;9.942;2023-05-10T04:19:14;14.30;99.90
33673;DHT22;20011;51.510;9.942;2023-05-10T04:21:41;14.30;99.90
33673;DHT22;20011;51.510;9.942;2023-05-10T04:24:08;14.30;99.90
33673;DHT22;20011;51.510;9.942;2023-05-10T04:26:34;14.30;99.90
33673;DHT22;20011;51.510;9.942;2023-05-10T04:29:01;14.30;99.90
33673;DHT22;20011;51.510;9.942;2023-05-10T04:31:29;14.30;99.90
33673;DHT22;20011;51.510;9.942;2023-05-10T04:33:56;14.30;99.90
33673;DHT22;20011;51.510;9.942;2023-05-10T04:36:22;14.30;99.90
33673;DHT22;20011;51.510;9.942;2023-05-10T04:38:49;14.20;99.90
33673;DHT22;20011;51.510;9.942;2023-05-10T04:41:16;14.30;99.90
33673;DHT22;20011;51.510;9.942;2023-05-10T04:43:43;14.20;99.90
33673;DHT22;20011;51.510;9.942;2023-05-10T04:46:10;14.20;99.90
33673;DHT22;20011;51.510;9.942;2023-05-10T04:48:37;14.20;99.90
33673;DHT22;20011;51.510;9.942;2023-05-10T04:51:04;14.20;99.90
33673;DHT22;20011;51.510;9.942;2023-05-10T04:53:33;14.20;99.90
33673;DHT22;20011;51.510;9.942;2023-05-10T04:56:00;14.20;99.90
33673;DHT22;20011;51.510;9.942;2023-05-10T04:58:27;14.20;99.90
33673;DHT22;20011;51.510;9.942;2023-05-10T05:00:53;14.10;99.90
33673;DHT22;20011;51.510;9.942;2023-05-10T05:03:20;14.10;99.90
33673;DHT22;20011;51.510;9.942;2023-05-10T05:05:48;14.10;99.90
33673;DHT22;20011;51.510;9.942;2023-05-10T05:08:15;14.10;99.90
33673;DHT22;20011;51.510;9.942;2023-05-10T05:10:42;14.00;99.90
33673;DHT22;20011;51.510;9.942;2023-05-10T05:13:09;14.00;99.90
33673;DHT22;20011;51.510;9.942;2023-05-10T05:15:36;14.00;99.90
33673;DHT22;20011;51.510;9.942;2023-05-10T05:18:03;14.00;99.90
33673;DHT22;20011;51.510;9.942;2023-05-10T05:20:35;14.00;99.90
33673;DHT22;20011;51.510;9.942;2023-05-10T05:23:02;14.10;99.90
33673;DHT22;20011;51.510;9.942;2023-05-10T05:25:29;14.10;99.90
33673;DHT22;20011;51.510;9.942;2023-05-10T05:27:56;14.10;99.90
33673;DHT22;20011;51.510;9.942;2023-05-10T05:30:22;14.10;99.90
33673;DHT22;20011;51.510;9.942;2023-05-10T05:32:49;14.20;99.90
33673;DHT22;20011;51.510;9.942;2023-05-10T05:35:16;14.20;99.90
33673;DHT22;20011;51.510;9.942;2023-05-10T05:37:44;14.20;99.90
33673;DHT22;20011;51.510;9.942;2023-05-10T05:40:12;14.30;99.90
33673;DHT22;20011;51.510;9.942;2023-05-10T05:42:39;14.30;99.90
33673;DHT22;20011;51.510;9.942;2023-05-10T05:45:07;14.30;99.90
33673;DHT22;20011;51.510;9.942;2023-05-10T05:47:35;14.30;99.90
33673;DHT22;20011;51.510;9.942;2023-05-10T05:50:02;14.30;99.90
33673;DHT22;20011;51.510;9.942;2023-05-10T05:52:29;14.40;99.90
33673;DHT22;20011;51.510;9.942;2023-05-10T05:54:56;14.40;99.90
33673;DHT22;20011;51.510;9.942;2023-05-10T05:57:23;14.40;99.90
33673;DHT22;20011;51.510;9.942;2023-05-10T05:59:50;14.40;99.90
33673;DHT22;20011;51.510;9.942;2023-05-10T06:02:17;14.40;99.90
33673;DHT22;20011;51.510;9.942;2023-05-10T06:04:44;14.40;99.90
33673;DHT22;20011;51.510;9.942;2023-05-10T06:07:11;14.50;99.90
33673;DHT22;20011;51.510;9.942;2023-05-10T06:09:37;14.40;99.90
33673;DHT22;20011;51.510;9.942;2023-05-10T06:12:04;14.50;99.90
33673;DHT22;20011;51.510;9.942;2023-05-10T06:14:31;14.50;99.90
33673;DHT22;20011;51.510;9.942;2023-05-10T06:16:58;14.50;99.90
33673;DHT22;20011;51.510;9.942;2023-05-10T06:19:26;14.50;99.90
33673;DHT22;20011;51.510;9.942;2023-05-10T06:21:53;14.50;99.90
33673;DHT22;20011;51.510;9.942;2023-05-10T06:24:20;14.50;99.90
33673;DHT22;20011;51.510;9.942;2023-05-10T06:26:48;14.60;99.90
33673;DHT22;20011;51.510;9.942;2023-05-10T06:29:16;14.60;99.90
33673;DHT22;20011;51.510;9.942;2023-05-10T06:31:43;14.60;99.90
33673;DHT22;20011;51.510;9.942;2023-05-10T06:34:10;14.60;99.90
33673;DHT22;20011;51.510;9.942;2023-05-10T06:36:38;14.60;99.90
33673;DHT22;20011;51.510;9.942;2023-05-10T06:39:05;14.60;99.90
33673;DHT22;20011;51.510;9.942;2023-05-10T06:41:32;14.60;99.90
33673;DHT22;20011;51.510;9.942;2023-05-10T06:43:59;14.60;99.90
33673;DHT22;20011;51.510;9.942;2023-05-10T06:46:25;14.60;99.90
33673;DHT22;20011;51.510;9.942;2023-05-10T06:48:52;14.70;99.90
33673;DHT22;20011;51.510;9.942;2023-05-10T06:51:19;14.70;99.90
33673;DHT22;20011;51.510;9.942;2023-05-10T06:53:47;14.70;99.90
33673;DHT22;20011;51.510;9.942;2023-05-10T06:56:14;14.80;99.90
33673;DHT22;20011;51.510;9.942;2023-05-10T06:58:41;14.80;99.90
33673;DHT22;20011;51.510;9.942;2023-05-10T07:01:08;14.80;99.90
33673;DHT22;20011;51.510;9.942;2023-05-10T07:03:35;14.80;99.90
33673;DHT22;20011;51.510;9.942;2023-05-10T07:06:03;14.80;99.90
33673;DHT22;20011;51.510;9.942;2023-05-10T07:08:31;15.00;99.90
33673;DHT22;20011;51.510;9.942;2023-05-10T07:11:03;14.80;99.90
33673;DHT22;20011;51.510;9.942;2023-05-10T07:13:31;14.80;99.90
33673;DHT22;20011;51.510;9.942;2023-05-10T07:15:59;14.80;99.90
33673;DHT22;20011;51.510;9.942;2023-05-10T07:18:26;15.00;99.90
33673;DHT22;20011;51.510;9.942;2023-05-10T07:20:53;14.80;99.90
33673;DHT22;20011;51.510;9.942;2023-05-10T07:23:20;14.90;99.90
33673;DHT22;20011;51.510;9.942;2023-05-10T07:25:48;14.90;99.90
33673;DHT22;20011;51.510;9.942;2023-05-10T07:28:16;14.80;99.90
33673;DHT22;20011;51.510;9.942;2023-05-10T07:30:43;14.80;99.90
33673;DHT22;20011;51.510;9.942;2023-05-10T07:33:12;14.90;99.90
33673;DHT22;20011;51.510;9.942;2023-05-10T07:35:39;14.90;99.90
33673;DHT22;20011;51.510;9.942;2023-05-10T07:38:06;14.90;99.90
33673;DHT22;20011;51.510;9.942;2023-05-10T07:40:34;14.90;99.90
33673;DHT22;20011;51.510;9.942;2023-05-10T07:43:01;14.90;99.90
33673;DHT22;20011;51.510;9.942;2023-05-10T07:45:28;14.90;99.90
33673;DHT22;20011;51.510;9.942;2023-05-10T07:47:55;14.90;99.90
33673;DHT22;20011;51.510;9.942;2023-05-10T07:50:22;15.00;99.90
33673;DHT22;20011;51.510;9.942;2023-05-10T07:52:49;15.00;99.90
33673;DHT22;20011;51.510;9.942;2023-05-10T07:55:18;15.00;99.90
33673;DHT22;20011;51.510;9.942;2023-05-10T07:57:46;15.00;99.90
33673;DHT22;20011;51.510;9.942;2023-05-10T08:00:17;15.00;99.90
33673;DHT22;20011;51.510;9.942;2023-05-10T08:02:44;15.10;99.90
33673;DHT22;20011;51.510;9.942;2023-05-10T08:05:11;15.10;99.90
33673;DHT22;20011;51.510;9.942;2023-05-10T08:07:38;15.10;99.90
33673;DHT22;20011;51.510;9.942;2023-05-10T08:10:06;15.10;99.90
33673;DHT22;20011;51.510;9.942;2023-05-10T08:12:34;15.20;99.90
33673;DHT22;20011;51.510;9.942;2023-05-10T08:15:01;15.20;99.90
33673;DHT22;20011;51.510;9.942;2023-05-10T08:17:28;15.20;99.90
33673;DHT22;20011;51.510;9.942;2023-05-10T08:19:56;15.30;99.90
33673;DHT22;20011;51.510;9.942;2023-05-10T08:22:23;15.30;99.90
33673;DHT22;20011;51.510;9.942;2023-05-10T08:24:50;15.40;99.90
33673;DHT22;20011;51.510;9.942;2023-05-10T08:27:17;15.40;99.90
33673;DHT22;20011;51.510;9.942;2023-05-10T08:29:44;15.50;99.90
33673;DHT22;20011;51.510;9.942;2023-05-10T08:32:16;15.50;99.90
33673;DHT22;20011;51.510;9.942;2023-05-10T08:34:43;15.60;99.90
33673;DHT22;20011;51.510;9.942;2023-05-10T08:37:10;15.60;99.90
33673;DHT22;20011;51.510;9.942;2023-05-10T08:39:40;15.60;99.90
33673;DHT22;20011;51.510;9.942;2023-05-10T08:42:07;15.70;99.90
33673;DHT22;20011;51.510;9.942;2023-05-10T08:44:36;15.70;99.90
33673;DHT22;20011;51.510;9.942;2023-05-10T08:47:06;15.80;99.90
33673;DHT22;20011;51.510;9.942;2023-05-10T08:49:37;15.80;99.90
33673;DHT22;20011;51.510;9.942;2023-05-10T08:52:05;15.80;99.90
33673;DHT22;20011;51.510;9.942;2023-05-10T08:54:34;15.90;99.90
33673;DHT22;20011;51.510;9.942;2023-05-10T08:57:01;16.00;99.90
33673;DHT22;20011;51.510;9.942;2023-05-10T08:59:28;15.90;99.90
33673;DHT22;20011;51.510;9.942;2023-05-10T09:01:57;16.00;99.90
33673;DHT22;20011;51.510;9.942;2023-05-10T09:04:25;16.00;99.90
33673;DHT22;20011;51.510;9.942;2023-05-10T09:06:53;16.00;99.90
33673;DHT22;20011;51.510;9.942;2023-05-10T09:09:20;16.00;99.90
33673;DHT22;20011;51.510;9.942;2023-05-10T09:11:48;16.00;99.90
33673;DHT22;20011;51.510;9.942;2023-05-10T09:14:15;16.00;99.90
33673;DHT22;20011;51.510;9.942;2023-05-10T09:16:42;16.00;99.90
33673;DHT22;20011;51.510;9.942;2023-05-10T09:19:10;15.90;99.90
33673;DHT22;20011;51.510;9.942;2023-05-10T09:21:37;16.00;99.90
33673;DHT22;20011;51.510;9.942;2023-05-10T09:24:08;16.00;99.90
33673;DHT22;20011;51.510;9.942;2023-05-10T09:26:36;16.00;99.90
33673;DHT22;20011;51.510;9.942;2023-05-10T09:29:13;16.10;99.90
33673;DHT22;20011;51.510;9.942;2023-05-10T09:31:47;16.10;99.90
33673;DHT22;20011;51.510;9.942;2023-05-10T09:34:18;16.20;99.90
33673;DHT22;20011;51.510;9.942;2023-05-10T09:36:53;16.20;99.90
33673;DHT22;20011;51.510;9.942;2023-05-10T09:39:21;16.20;99.90
33673;DHT22;20011;51.510;9.942;2023-05-10T09:41:58;16.10;99.90
33673;DHT22;20011;51.510;9.942;2023-05-10T09:44:26;16.00;99.90
33673;DHT22;20011;51.510;9.942;2023-05-10T09:46:53;16.00;99.90
33673;DHT22;20011;51.510;9.942;2023-05-10T09:49:21;16.00;99.90
33673;DHT22;20011;51.510;9.942;2023-05-10T09:52:00;16.00;99.90
33673;DHT22;20011;51.510;9.942;2023-05-10T09:54:27;16.00;99.90
33673;DHT22;20011;51.510;9.942;2023-05-10T09:56:54;16.10;99.90
33673;DHT22;20011;51.510;9.942;2023-05-10T09:59:25;16.10;99.90
33673;DHT22;20011;51.510;9.942;2023-05-10T10:01:56;16.20;99.90
33673;DHT22;20011;51.510;9.942;2023-05-10T10:04:23;16.20;99.90
33673;DHT22;20011;51.510;9.942;2023-05-10T10:07:04;16.30;99.90
33673;DHT22;20011;51.510;9.942;2023-05-10T10:09:31;16.30;99.90
33673;DHT22;20011;51.510;9.942;2023-05-10T10:12:00;16.40;99.90
33673;DHT22;20011;51.510;9.942;2023-05-10T10:14:27;16.40;99.90
33673;DHT22;20011;51.510;9.942;2023-05-10T10:16:55;16.40;99.90
33673;DHT22;20011;51.510;9.942;2023-05-10T10:19:35;16.40;99.90
33673;DHT22;20011;51.510;9.942;2023-05-10T10:22:03;16.40;99.90
33673;DHT22;20011;51.510;9.942;2023-05-10T10:24:30;16.40;99.90
33673;DHT22;20011;51.510;9.942;2023-05-10T10:27:04;16.30;99.90
33673;DHT22;20011;51.510;9.942;2023-05-10T10:29:47;16.30;99.90
33673;DHT22;20011;51.510;9.942;2023-05-10T10:32:37;16.40;99.90
33673;DHT22;20011;51.510;9.942;2023-05-10T10:35:08;16.40;99.90
33673;DHT22;20011;51.510;9.942;2023-05-10T10:37:46;16.40;99.90
33673;DHT22;20011;51.510;9.942;2023-05-10T10:40:27;16.40;99.90
33673;DHT22;20011;51.510;9.942;2023-05-10T10:42:55;16.40;99.90
33673;DHT22;20011;51.510;9.942;2023-05-10T10:45:23;16.40;99.90
33673;DHT22;20011;51.510;9.942;2023-05-10T10:48:22;16.40;99.90
33673;DHT22;20011;51.510;9.942;2023-05-10T10:50:56;16.50;99.90
33673;DHT22;20011;51.510;9.942;2023-05-10T10:53:27;16.50;99.90
33673;DHT22;20011;51.510;9.942;2023-05-10T10:56:07;16.50;99.90
33673;DHT22;20011;51.510;9.942;2023-05-10T10:58:35;16.50;99.90
33673;DHT22;20011;51.510;9.942;2023-05-10T11:01:16;16.40;99.90
33673;DHT22;20011;51.510;9.942;2023-05-10T11:06:33;16.40;99.90
33673;DHT22;20011;51.510;9.942;2023-05-10T11:09:08;16.30;99.90
33673;DHT22;20011;51.510;9.942;2023-05-10T11:11:36;16.30;99.90
33673;DHT22;20011;51.510;9.942;2023-05-10T11:14:14;16.30;99.90
33673;DHT22;20011;51.510;9.942;2023-05-10T11:16:46;16.30;99.90
33673;DHT22;20011;51.510;9.942;2023-05-10T11:19:14;16.30;99.90
33673;DHT22;20011;51.510;9.942;2023-05-10T11:22:12;16.30;99.90
33673;DHT22;20011;51.510;9.942;2023-05-10T11:24:40;16.40;99.90
33673;DHT22;20011;51.510;9.942;2023-05-10T11:27:22;16.40;99.90
33673;DHT22;20011;51.510;9.942;2023-05-10T11:29:52;16.40;99.90
33673;DHT22;20011;51.510;9.942;2023-05-10T11:32:19;16.40;99.90
33673;DHT22;20011;51.510;9.942;2023-05-10T11:34:47;16.40;99.90
33673;DHT22;20011;51.510;9.942;2023-05-10T11:37:15;16.40;99.90
33673;DHT22;20011;51.510;9.942;2023-05-10T11:39:45;16.40;99.90
33673;DHT22;20011;51.510;9.942;2023-05-10T11:42:13;16.40;99.90
33673;DHT22;20011;51.510;9.942;2023-05-10T11:44:41;16.50;99.90
33673;DHT22;20011;51.510;9.942;2023-05-10T11:47:08;16.50;99.90
33673;DHT22;20011;51.510;9.942;2023-05-10T11:49:35;16.50;99.90
33673;DHT22;20011;51.510;9.942;2023-05-10T11:52:06;16.50;99.90
33673;DHT22;20011;51.510;9.942;2023-05-10T11:54:34;16.50;99.90
33673;DHT22;20011;51.510;9.942;2023-05-10T11:57:01;16.50;99.90
33673;DHT22;20011;51.510;9.942;2023-05-10T11:59:29;16.50;99.90
33673;DHT22;20011;51.510;9.942;2023-05-10T12:01:56;16.40;99.90
33673;DHT22;20011;51.510;9.942;2023-05-10T12:04:23;16.40;99.90
33673;DHT22;20011;51.510;9.942;2023-05-10T12:06:50;16.40;99.90
33673;DHT22;20011;51.510;9.942;2023-05-10T12:09:17;16.40;99.90
33673;DHT22;20011;51.510;9.942;2023-05-10T12:11:57;16.50;99.90
33673;DHT22;20011;51.510;9.942;2023-05-10T12:14:24;16.50;99.90
33673;DHT22;20011;51.510;9.942;2023-05-10T12:16:51;16.50;99.90
33673;DHT22;20011;51.510;9.942;2023-05-10T12:19:19;16.50;99.90
33673;DHT22;20011;51.510;9.942;2023-05-10T12:21:47;16.50;99.90
33673;DHT22;20011;51.510;9.942;2023-05-10T12:24:14;16.50;99.90
33673;DHT22;20011;51.510;9.942;2023-05-10T12:26:45;16.50;99.90
33673;DHT22;20011;51.510;9.942;2023-05-10T12:29:15;16.50;99.90
33673;DHT22;20011;51.510;9.942;2023-05-10T12:31:50;16.50;99.90
33673;DHT22;20011;51.510;9.942;2023-05-10T12:34:30;16.60;99.90
33673;DHT22;20011;51.510;9.942;2023-05-10T12:36:57;16.60;99.90
33673;DHT22;20011;51.510;9.942;2023-05-10T12:39:24;16.60;99.90
33673;DHT22;20011;51.510;9.942;2023-05-10T12:41:52;16.60;99.90
33673;DHT22;20011;51.510;9.942;2023-05-10T12:44:19;16.70;99.90
33673;DHT22;20011;51.510;9.942;2023-05-10T12:46:46;16.70;99.90
33673;DHT22;20011;51.510;9.942;2023-05-10T12:49:13;16.70;99.90
33673;DHT22;20011;51.510;9.942;2023-05-10T12:51:40;16.70;99.90
33673;DHT22;20011;51.510;9.942;2023-05-10T12:54:06;16.80;99.90
33673;DHT22;20011;51.510;9.942;2023-05-10T12:56:33;16.80;99.90
33673;DHT22;20011;51.510;9.942;2023-05-10T12:59:00;16.80;99.90
33673;DHT22;20011;51.510;9.942;2023-05-10T13:01:27;16.90;99.90
33673;DHT22;20011;51.510;9.942;2023-05-10T13:03:54;16.90;99.90
33673;DHT22;20011;51.510;9.942;2023-05-10T13:06:21;16.90;99.90
33673;DHT22;20011;51.510;9.942;2023-05-10T13:08:48;16.90;99.90
33673;DHT22;20011;51.510;9.942;2023-05-10T13:11:15;16.90;99.90
33673;DHT22;20011;51.510;9.942;2023-05-10T13:13:43;17.00;99.90
33673;DHT22;20011;51.510;9.942;2023-05-10T13:16:11;17.00;99.90
33673;DHT22;20011;51.510;9.942;2023-05-10T13:18:38;16.90;99.90
33673;DHT22;20011;51.510;9.942;2023-05-10T13:21:05;17.00;99.90
33673;DHT22;20011;51.510;9.942;2023-05-10T13:23:32;17.00;99.90
33673;DHT22;20011;51.510;9.942;2023-05-10T13:25:59;17.00;99.90
33673;DHT22;20011;51.510;9.942;2023-05-10T13:28:26;17.00;99.90
33673;DHT22;20011;51.510;9.942;2023-05-10T13:30:53;17.00;99.90
33673;DHT22;20011;51.510;9.942;2023-05-10T13:33:20;17.00;99.90
33673;DHT22;20011;51.510;9.942;2023-05-10T13:35:46;17.00;99.90
33673;DHT22;20011;51.510;9.942;2023-05-10T13:38:13;17.00;99.90
33673;DHT22;20011;51.510;9.942;2023-05-10T13:40:40;17.00;99.90
33673;DHT22;20011;51.510;9.942;2023-05-10T13:43:07;16.90;99.90
33673;DHT22;20011;51.510;9.942;2023-05-10T13:45:34;16.90;99.90
33673;DHT22;20011;51.510;9.942;2023-05-10T13:48:01;16.90;99.90
33673;DHT22;20011;51.510;9.942;2023-05-10T13:50:28;17.00;99.90
33673;DHT22;20011;51.510;9.942;2023-05-10T13:52:55;16.90;99.90
33673;DHT22;20011;51.510;9.942;2023-05-10T13:55:22;16.90;99.90
33673;DHT22;20011;51.510;9.942;2023-05-10T13:57:49;17.00;99.90
33673;DHT22;20011;51.510;9.942;2023-05-10T14:00:16;17.00;99.90
33673;DHT22;20011;51.510;9.942;2023-05-10T14:02:43;17.10;99.90
33673;DHT22;20011;51.510;9.942;2023-05-10T14:05:10;17.10;99.90
33673;DHT22;20011;51.510;9.942;2023-05-10T14:07:38;17.10;99.90
33673;DHT22;20011;51.510;9.942;2023-05-10T14:10:05;17.10;99.90
33673;DHT22;20011;51.510;9.942;2023-05-10T14:12:33;17.10;99.90
33673;DHT22;20011;51.510;9.942;2023-05-10T14:14:59;17.00;99.90
33673;DHT22;20011;51.510;9.942;2023-05-10T14:17:26;17.00;99.90
33673;DHT22;20011;51.510;9.942;2023-05-10T14:19:54;17.00;99.90
33673;DHT22;20011;51.510;9.942;2023-05-10T14:22:21;17.00;99.90
33673;DHT22;20011;51.510;9.942;2023-05-10T14:24:48;17.00;99.90
33673;DHT22;20011;51.510;9.942;2023-05-10T14:27:15;17.00;99.90
33673;DHT22;20011;51.510;9.942;2023-05-10T14:29:42;17.00;99.90
33673;DHT22;20011;51.510;9.942;2023-05-10T14:32:09;17.00;99.90
33673;DHT22;20011;51.510;9.942;2023-05-10T14:34:37;17.00;99.90
33673;DHT22;20011;51.510;9.942;2023-05-10T14:37:04;17.00;99.90
33673;DHT22;20011;51.510;9.942;2023-05-10T14:41:59;17.00;99.90
33673;DHT22;20011;51.510;9.942;2023-05-10T14:44:26;16.90;99.90
33673;DHT22;20011;51.510;9.942;2023-05-10T14:46:53;17.00;99.90
33673;DHT22;20011;51.510;9.942;2023-05-10T14:49:20;16.90;99.90
33673;DHT22;20011;51.510;9.942;2023-05-10T14:51:49;16.80;99.90
33673;DHT22;20011;51.510;9.942;2023-05-10T14:54:16;16.80;99.90
33673;DHT22;20011;51.510;9.942;2023-05-10T14:56:43;16.80;99.90
33673;DHT22;20011;51.510;9.942;2023-05-10T14:59:10;16.80;99.90
33673;DHT22;20011;51.510;9.942;2023-05-10T15:01:37;16.80;99.90
33673;DHT22;20011;51.510;9.942;2023-05-10T15:04:05;16.80;99.90
33673;DHT22;20011;51.510;9.942;2023-05-10T15:06:38;16.80;99.90
33673;DHT22;20011;51.510;9.942;2023-05-10T15:09:05;16.70;99.90
33673;DHT22;20011;51.510;9.942;2023-05-10T15:11:32;16.70;99.90
33673;DHT22;20011;51.510;9.942;2023-05-10T15:13:59;16.70;99.90
33673;DHT22;20011;51.510;9.942;2023-05-10T15:16:26;16.60;99.90
33673;DHT22;20011;51.510;9.942;2023-05-10T15:18:53;16.60;99.90
33673;DHT22;20011;51.510;9.942;2023-05-10T15:21:20;16.60;99.90
33673;DHT22;20011;51.510;9.942;2023-05-10T15:23:47;16.60;99.90
33673;DHT22;20011;51.510;9.942;2023-05-10T15:26:14;16.60;99.90
33673;DHT22;20011;51.510;9.942;2023-05-10T15:28:41;16.60;99.90
33673;DHT22;20011;51.510;9.942;2023-05-10T15:31:09;16.60;99.90
33673;DHT22;20011;51.510;9.942;2023-05-10T15:33:37;16.60;99.90
33673;DHT22;20011;51.510;9.942;2023-05-10T15:36:05;16.60;99.90
33673;DHT22;20011;51.510;9.942;2023-05-10T15:38:33;16.60;99.90
33673;DHT22;20011;51.510;9.942;2023-05-10T15:41:00;16.60;99.90
33673;DHT22;20011;51.510;9.942;2023-05-10T15:43:27;16.70;99.90
33673;DHT22;20011;51.510;9.942;2023-05-10T15:45:54;16.70;99.90
33673;DHT22;20011;51.510;9.942;2023-05-10T15:48:22;16.60;99.90
33673;DHT22;20011;51.510;9.942;2023-05-10T15:50:52;16.70;99.90
33673;DHT22;20011;51.510;9.942;2023-05-10T15:53:19;16.70;99.90
33673;DHT22;20011;51.510;9.942;2023-05-10T15:55:46;16.60;99.90
33673;DHT22;20011;51.510;9.942;2023-05-10T15:58:13;16.70;99.90
33673;DHT22;20011;51.510;9.942;2023-05-10T16:00:39;16.60;99.90
33673;DHT22;20011;51.510;9.942;2023-05-10T16:03:07;16.70;99.90